Time;durP1;ratioP1;P1;durP2;ratioP2;P2;SDS_P1;SDS_P2;PMS_P1;PMS_P2;Temp;Humidity;BMP_temperature;BMP_pressure;BME280_temperature;BME280_humidity;BME280_pressure;Samples;Min_cycle;Max_cycle;Signal;HPM_P1;HPM_P2
2022/04/09 00:00:52;;;;;;;1.70;1.70;;;;;;;6.32;62.41;97140.97;7048366;28;20223;-83
2022/04/09 00:04:13;;;;;;;2.00;1.90;;;;;;;6.21;62.81;97141.72;7049024;28;20213;-85
2022/04/09 00:08:07;;;;;;;1.83;1.80;;;;;;;6.42;63.22;97170.75;7046799;28;20221;-84
2022/04/09 00:11:38;;;;;;;1.90;1.80;;;;;;;6.47;62.57;97208.38;7042849;28;20206;-83
2022/04/09 00:15:10;;;;;;;2.00;1.90;;;;;;;6.33;63.58;97232.78;7048150;28;20207;-85
2022/04/09 00:18:35;;;;;;;2.00;1.97;;;;;;;6.16;63.67;97232.50;7048332;28;20596;-84
2022/04/09 00:22:03;;;;;;;2.10;2.00;;;;;;;6.24;63.25;97253.63;7048671;28;20208;-85
2022/04/09 00:25:32;;;;;;;1.90;1.80;;;;;;;6.49;63.71;97283.94;7048364;28;20192;-84
2022/04/09 00:33:09;;;;;;;1.70;1.70;;;;;;;6.68;62.79;97363.34;7047533;28;20207;-86
2022/04/09 00:36:31;;;;;;;2.00;1.90;;;;;;;6.36;63.10;97342.09;7046913;28;20209;-88
2022/04/09 00:39:53;;;;;;;2.20;2.10;;;;;;;6.18;63.99;97344.66;7047256;28;20250;-84
2022/04/09 00:43:15;;;;;;;2.17;2.07;;;;;;;6.45;64.19;97347.00;7047232;28;20216;-83
2022/04/09 00:46:36;;;;;;;2.50;2.30;;;;;;;6.24;64.08;97347.28;7047896;28;20209;-84
2022/04/09 00:49:59;;;;;;;2.10;2.00;;;;;;;6.53;64.12;97375.34;7047174;28;20239;-84
2022/04/09 00:53:21;;;;;;;2.17;2.07;;;;;;;6.31;63.03;97342.72;7048220;28;20262;-87
2022/04/09 00:56:43;;;;;;;2.43;2.30;;;;;;;6.64;63.46;97407.63;7046486;28;20211;-84
2022/04/09 01:00:10;;;;;;;2.30;2.20;;;;;;;6.67;63.11;97415.22;7046822;28;20234;-83
2022/04/09 01:03:40;;;;;;;2.10;2.00;;;;;;;6.62;63.33;97412.38;7046514;28;20265;-85
2022/04/09 01:07:07;;;;;;;2.00;1.90;;;;;;;6.51;62.65;97362.19;7044191;28;20224;-85
2022/04/09 01:10:29;;;;;;;2.30;2.10;;;;;;;6.38;63.28;97414.97;7046170;28;20706;-86
2022/04/09 01:14:13;;;;;;;2.20;2.10;;;;;;;6.72;63.22;97463.59;7046727;28;20208;-85
2022/04/09 01:17:36;;;;;;;2.30;2.20;;;;;;;7.17;62.90;97486.66;7045883;28;20189;-83
2022/04/09 01:21:10;;;;;;;2.97;2.77;;;;;;;7.10;62.58;97498.44;7046094;28;20231;-85
2022/04/09 01:24:33;;;;;;;2.30;2.20;;;;;;;6.51;63.51;97503.25;7046319;28;20200;-83
2022/04/09 01:27:54;;;;;;;2.70;2.60;;;;;;;6.33;64.07;97519.16;7045992;28;20223;-84
2022/04/09 01:31:16;;;;;;;2.60;2.50;;;;;;;6.51;64.37;97530.00;7046388;28;20230;-84
2022/04/09 01:34:39;;;;;;;2.50;2.40;;;;;;;6.49;63.32;97489.25;7043314;28;20210;-83
2022/04/09 01:38:01;;;;;;;2.93;2.77;;;;;;;6.80;63.31;97543.72;7022459;28;20202;-83
2022/04/09 01:41:37;;;;;;;2.77;2.57;;;;;;;6.85;63.01;97535.06;7020254;28;20249;-83
2022/04/09 01:45:02;;;;;;;2.90;2.70;;;;;;;6.70;63.65;97564.78;7023746;28;20204;-84
2022/04/09 01:48:24;;;;;;;4.03;2.90;;;;;;;6.68;63.19;97507.09;7021453;28;20228;-83
2022/04/09 01:51:49;;;;;;;2.97;2.77;;;;;;;6.61;62.76;97511.66;7038141;28;20668;-83
2022/04/09 01:55:10;;;;;;;3.00;2.80;;;;;;;7.24;62.63;97608.03;7045790;28;20208;-83
2022/04/09 01:58:33;;;;;;;3.20;3.00;;;;;;;7.25;62.55;97608.88;7044769;28;20224;-83
2022/04/09 02:01:55;;;;;;;3.27;3.07;;;;;;;7.07;61.96;97539.88;7048827;28;20233;-82
2022/04/09 02:05:17;;;;;;;2.80;2.60;;;;;;;7.28;62.23;97635.25;7046454;28;20212;-82
2022/04/09 02:08:48;;;;;;;3.63;3.33;;;;;;;7.25;62.36;97644.53;7048115;28;20234;-82
2022/04/09 02:12:10;;;;;;;3.90;3.60;;;;;;;6.99;62.52;97657.19;7048738;28;20203;-82
2022/04/09 02:15:37;;;;;;;3.63;3.30;;;;;;;6.50;62.61;97596.16;7047617;28;20210;-85
2022/04/09 02:18:58;;;;;;;3.83;3.53;;;;;;;7.03;62.49;97647.72;7046841;28;20245;-81
2022/04/09 02:22:20;;;;;;;3.70;3.40;;;;;;;7.39;62.24;97678.31;7047055;28;20214;-82
2022/04/09 02:25:42;;;;;;;3.93;3.50;;;;;;;7.37;62.23;97691.09;7046471;28;20266;-82
2022/04/09 02:29:03;;;;;;;4.00;3.70;;;;;;;7.24;61.98;97693.81;7046539;28;20314;-82
2022/04/09 02:32:26;;;;;;;6.13;5.60;;;;;;;7.34;62.13;97712.97;7047419;28;20207;-81
2022/04/09 02:35:48;;;;;;;4.77;4.37;;;;;;;7.22;62.64;97703.09;7046113;28;20221;-83
2022/04/09 02:39:10;;;;;;;3.90;3.60;;;;;;;7.15;62.63;97718.38;7046622;28;20251;-82
2022/04/09 02:42:31;;;;;;;4.37;3.97;;;;;;;7.08;62.75;97749.75;7046978;28;20497;-82
2022/04/09 02:45:53;;;;;;;6.50;4.40;;;;;;;7.09;62.85;97765.63;7047195;28;20230;-82
2022/04/09 02:49:17;;;;;;;4.53;4.13;;;;;;;7.21;62.40;97773.84;7048963;28;20565;-81
2022/04/09 02:52:39;;;;;;;4.90;4.50;;;;;;;7.23;62.82;97783.31;7049455;28;20209;-83
2022/04/09 02:56:01;;;;;;;5.67;5.17;;;;;;;7.33;62.41;97801.66;7049695;28;20235;-84
2022/04/09 02:59:23;;;;;;;7.03;5.00;;;;;;;7.36;62.47;97812.78;7050142;28;20221;-82
2022/04/09 03:02:45;;;;;;;6.43;4.30;;;;;;;7.32;62.38;97821.47;7047868;28;20205;-85
2022/04/09 03:06:09;;;;;;;7.00;4.93;;;;;;;7.58;61.95;97822.22;7045606;28;20212;-86
2022/04/09 03:09:31;;;;;;;5.00;4.27;;;;;;;7.58;61.37;97832.97;7044369;28;20236;-84
2022/04/09 03:12:52;;;;;;;5.63;5.10;;;;;;;7.29;62.69;97854.88;7042887;28;20315;-84
2022/04/09 03:16:14;;;;;;;5.57;4.67;;;;;;;7.62;62.33;97854.81;7041322;28;20232;-83
2022/04/09 03:19:35;;;;;;;5.87;5.20;;;;;;;7.53;62.33;97872.16;7041313;28;20253;-85
2022/04/09 03:22:58;;;;;;;7.33;5.60;;;;;;;7.18;62.40;97799.19;7042326;28;20206;-84
2022/04/09 03:26:20;;;;;;;5.90;5.33;;;;;;;7.32;62.39;97877.75;7042607;28;20198;-84
2022/04/09 03:29:42;;;;;;;6.07;5.47;;;;;;;7.26;62.76;97874.03;7043870;28;20230;-84
2022/04/09 03:33:03;;;;;;;5.70;5.10;;;;;;;7.18;62.74;97893.00;7044111;28;20299;-84
2022/04/09 03:36:42;;;;;;;6.33;5.73;;;;;;;7.42;62.75;97897.75;7044052;28;20646;-84
2022/04/09 03:40:06;;;;;;;6.00;5.40;;;;;;;7.32;62.17;97838.34;6958855;28;20231;-84
2022/04/09 03:43:28;;;;;;;5.57;5.07;;;;;;;7.59;61.98;97906.19;6956950;28;20233;-84
2022/04/09 03:46:50;;;;;;;5.60;5.10;;;;;;;7.76;61.98;97927.00;6956071;28;20211;-84
2022/04/09 03:50:11;;;;;;;6.67;5.97;;;;;;;7.44;62.35;97919.84;6955904;28;20254;-83
2022/04/09 03:53:34;;;;;;;6.47;5.73;;;;;;;7.55;62.64;97948.69;6955138;28;20207;-83
2022/04/09 03:56:57;;;;;;;7.13;5.47;;;;;;;7.20;62.55;97908.91;6954354;28;20219;-84
2022/04/09 04:00:18;;;;;;;6.73;6.03;;;;;;;7.40;62.63;97956.13;6954722;28;20246;-83
2022/04/09 04:03:40;;;;;;;6.97;6.27;;;;;;;7.44;62.46;97948.50;6955250;28;20214;-83
2022/04/09 04:07:02;;;;;;;5.93;5.40;;;;;;;7.72;61.70;97941.06;6953946;28;20199;-83
2022/04/09 04:10:23;;;;;;;5.77;5.13;;;;;;;7.34;62.26;97932.81;6955191;28;20230;-83
2022/04/09 04:13:48;;;;;;;7.00;6.30;;;;;;;7.60;62.06;97940.84;6956567;28;20220;-83
2022/04/09 04:17:09;;;;;;;6.87;5.83;;;;;;;7.86;61.53;97972.19;7009386;28;20215;-82
2022/04/09 04:20:33;;;;;;;8.93;6.50;;;;;;;7.82;61.49;97998.63;7041018;28;20238;-84
2022/04/09 04:23:55;;;;;;;7.53;6.73;;;;;;;7.66;61.97;97992.88;7041812;28;20258;-83
2022/04/09 04:27:16;;;;;;;8.97;7.43;;;;;;;7.63;62.58;98012.03;7040174;28;20202;-83
2022/04/09 04:30:39;;;;;;;9.97;7.87;;;;;;;7.76;61.98;97974.47;7040182;28;20222;-83
2022/04/09 04:34:01;;;;;;;8.40;7.60;;;;;;;7.96;61.27;97997.56;7039543;28;20209;-83
2022/04/09 04:37:23;;;;;;;8.97;7.83;;;;;;;7.49;61.07;97956.75;7038783;28;20196;-83
2022/04/09 04:40:44;;;;;;;12.10;9.30;;;;;;;7.74;62.36;98032.88;7025317;28;20225;-83
2022/04/09 04:44:07;;;;;;;10.97;9.03;;;;;;;8.11;61.02;98061.78;7040404;28;20197;-84
2022/04/09 04:47:30;;;;;;;11.20;8.90;;;;;;;7.93;60.77;98034.75;7030052;28;20313;-83
2022/04/09 04:50:52;;;;;;;12.67;9.63;;;;;;;8.26;60.40;98057.06;7029985;28;20241;-83
2022/04/09 04:54:13;;;;;;;16.37;10.67;;;;;;;8.27;59.89;98081.03;7013405;28;20206;-83
2022/04/09 04:57:43;;;;;;;13.60;10.17;;;;;;;8.11;60.26;98035.78;7012912;28;20213;-84
2022/04/09 05:01:06;;;;;;;15.63;11.00;;;;;;;8.46;60.30;98084.69;7013245;28;20236;-81
2022/04/09 05:04:30;;;;;;;12.90;10.50;;;;;;;7.88;60.71;98070.25;7035578;28;20194;-81
2022/04/09 05:07:53;;;;;;;12.50;9.97;;;;;;;8.32;59.79;98102.69;7036429;28;20208;-87
2022/04/09 05:11:14;;;;;;;13.13;11.07;;;;;;;8.26;59.05;98078.53;7040808;28;20250;-84
2022/04/09 05:14:36;;;;;;;15.13;9.83;;;;;;;8.29;59.12;98116.53;7041853;28;20203;-84
2022/04/09 05:18:07;;;;;;;13.33;9.87;;;;;;;8.11;59.32;98113.63;7039139;28;20204;-83
2022/04/09 05:21:30;;;;;;;13.50;10.60;;;;;;;8.20;59.06;98079.38;7038325;28;20231;-82
2022/04/09 05:24:53;;;;;;;14.07;11.93;;;;;;;8.68;59.21;98126.41;7039889;28;20565;-83
2022/04/09 05:28:14;;;;;;;15.87;10.33;;;;;;;8.13;59.31;98138.41;7044229;28;20197;-79
2022/04/09 05:31:36;;;;;;;15.80;11.17;;;;;;;8.45;59.11;98137.63;7040546;28;20205;-79
2022/04/09 05:34:58;;;;;;;13.93;10.87;;;;;;;8.22;59.06;98131.00;7038654;28;20196;-80
2022/04/09 05:38:21;;;;;;;15.17;10.97;;;;;;;8.57;59.04;98146.69;7033101;28;20200;-79
2022/04/09 05:41:42;;;;;;;13.87;10.10;;;;;;;8.55;58.75;98153.31;7033950;28;20220;-76
2022/04/09 05:45:05;;;;;;;14.67;11.60;;;;;;;8.74;58.65;98169.41;7048627;28;20213;-81
2022/04/09 05:48:26;;;;;;;14.60;10.90;;;;;;;8.99;57.67;98173.88;7033430;28;20316;-81
2022/04/09 05:51:48;;;;;;;13.63;10.37;;;;;;;8.73;57.68;98172.31;7044451;28;20204;-84
2022/04/09 05:55:11;;;;;;;15.47;10.83;;;;;;;9.00;58.26;98182.78;7046055;28;20201;-83
2022/04/09 05:58:34;;;;;;;16.17;12.40;;;;;;;9.37;57.41;98196.34;7040685;28;20242;-80
2022/04/09 06:01:56;;;;;;;10.60;9.50;;;;;;;9.10;56.63;98197.44;7038383;28;20810;-78
2022/04/09 06:05:18;;;;;;;13.90;10.63;;;;;;;8.84;56.65;98185.91;7036245;28;20208;-79
2022/04/09 06:08:39;;;;;;;16.13;9.63;;;;;;;9.01;56.23;98207.84;7034152;28;20226;-79
2022/04/09 06:12:05;;;;;;;11.23;8.87;;;;;;;8.33;57.47;98238.66;7034371;28;20250;-78
2022/04/09 06:15:29;;;;;;;12.47;9.43;;;;;;;8.69;58.43;98238.25;7040262;28;20197;-86
2022/04/09 06:18:51;;;;;;;13.03;8.93;;;;;;;9.72;56.38;98246.09;7035433;28;20228;-80
2022/04/09 06:22:12;;;;;;;9.70;8.67;;;;;;;9.54;55.50;98251.34;7038212;28;20217;-79
2022/04/09 06:25:34;;;;;;;13.43;9.80;;;;;;;9.39;55.93;98264.22;7037349;28;20285;-79
2022/04/09 06:28:57;;;;;;;12.27;9.60;;;;;;;9.42;55.88;98266.50;7037337;28;20249;-80
2022/04/09 06:32:19;;;;;;;13.93;8.87;;;;;;;9.06;56.10;98273.38;7036542;28;20281;-78
2022/04/09 06:35:40;;;;;;;12.33;10.03;;;;;;;8.80;56.96;98294.91;7039669;28;20235;-79
2022/04/09 06:39:02;;;;;;;11.70;8.83;;;;;;;9.05;55.69;98295.94;7037157;28;20232;-80
2022/04/09 06:42:24;;;;;;;9.83;8.23;;;;;;;8.90;55.83;98297.97;7036122;28;20220;-77
2022/04/09 06:45:46;;;;;;;13.47;9.50;;;;;;;9.71;55.75;98300.97;7035569;28;20585;-79
2022/04/09 06:49:08;;;;;;;12.07;9.57;;;;;;;9.69;56.10;98305.72;7034245;28;20313;-78
2022/04/09 06:52:30;;;;;;;14.13;9.90;;;;;;;9.27;55.73;98311.63;7037508;28;20189;-84
2022/04/09 06:55:51;;;;;;;8.07;6.87;;;;;;;9.61;55.31;98324.81;7037387;28;20201;-82
2022/04/09 06:59:13;;;;;;;9.20;7.33;;;;;;;9.51;55.03;98321.72;7036050;28;20236;-80
2022/04/09 07:02:36;;;;;;;7.33;6.63;;;;;;;9.55;54.44;98324.81;7033704;28;20224;-77
2022/04/09 07:05:58;;;;;;;7.50;6.73;;;;;;;9.39;55.09;98342.22;7033913;28;20200;-78
2022/04/09 07:09:20;;;;;;;8.40;6.00;;;;;;;9.40;54.27;98338.50;7020628;28;20790;-82
2022/04/09 07:12:42;;;;;;;8.57;5.70;;;;;;;9.48;53.91;98332.06;7034783;28;20201;-81
2022/04/09 07:16:04;;;;;;;8.87;6.23;;;;;;;9.85;53.55;98351.03;7034394;28;20232;-81
2022/04/09 07:19:27;;;;;;;9.33;6.87;;;;;;;9.45;54.84;98348.66;7035820;28;20294;-80
2022/04/09 07:22:48;;;;;;;7.80;7.00;;;;;;;9.67;55.05;98350.88;7036193;28;20225;-80
2022/04/09 07:26:10;;;;;;;7.00;6.30;;;;;;;9.46;54.32;98343.03;7036083;28;20556;-80
2022/04/09 07:29:32;;;;;;;14.97;7.77;;;;;;;10.06;54.40;98368.81;7035282;28;20221;-80
2022/04/09 07:32:56;;;;;;;8.03;6.60;;;;;;;9.69;54.38;98375.72;7034298;28;20229;-80
2022/04/09 07:36:19;;;;;;;12.43;7.53;;;;;;;9.73;54.87;98374.28;7034612;28;20205;-80
2022/04/09 07:39:40;;;;;;;8.27;6.93;;;;;;;10.15;54.29;98378.34;7035215;28;20240;-80
2022/04/09 07:43:02;;;;;;;11.43;7.37;;;;;;;10.16;53.75;98380.81;7035283;28;20229;-80
2022/04/09 07:46:24;;;;;;;10.37;6.60;;;;;;;10.58;53.44;98366.72;7018895;28;20677;-80
2022/04/09 07:49:47;;;;;;;6.97;5.73;;;;;;;10.03;52.82;98356.63;7036784;28;20232;-81
2022/04/09 07:53:11;;;;;;;6.90;5.80;;;;;;;9.94;52.05;98359.72;7034142;28;20198;-83
2022/04/09 07:56:32;;;;;;;11.67;6.57;;;;;;;10.04;54.06;98397.84;7024555;28;20193;-81
2022/04/09 07:59:55;;;;;;;9.27;6.17;;;;;;;10.36;52.09;98405.81;7030369;28;20255;-85
2022/04/09 08:03:17;;;;;;;7.00;5.87;;;;;;;10.20;52.15;98403.59;7035522;28;20227;-79
2022/04/09 08:06:39;;;;;;;14.10;5.83;;;;;;;9.88;53.88;98411.72;7029424;28;20457;-81
2022/04/09 08:10:02;;;;;;;9.90;5.97;;;;;;;9.82;53.88;98416.09;7030892;28;20234;-82
2022/04/09 08:13:23;;;;;;;12.13;6.30;;;;;;;10.02;52.43;98411.50;7031402;28;20193;-82
2022/04/09 08:16:45;;;;;;;8.90;5.83;;;;;;;10.25;52.50;98409.19;7037632;28;20205;-82
2022/04/09 08:20:08;;;;;;;7.47;5.77;;;;;;;9.78;52.94;98404.09;7038177;28;20227;-82
2022/04/09 08:23:31;;;;;;;9.27;5.73;;;;;;;10.22;52.11;98424.94;7037971;28;20243;-81
2022/04/09 08:26:54;;;;;;;6.83;5.13;;;;;;;10.28;50.85;98426.78;7038371;28;20336;-81
2022/04/09 08:30:16;;;;;;;8.90;5.90;;;;;;;10.16;51.00;98436.56;7038447;28;20225;-82
2022/04/09 08:33:40;;;;;;;9.37;5.07;;;;;;;9.88;52.35;98430.56;7037942;28;20202;-82
2022/04/09 08:37:02;;;;;;;7.63;4.57;;;;;;;9.95;52.33;98444.84;7038310;28;20209;-82
2022/04/09 08:40:24;;;;;;;10.83;5.40;;;;;;;10.18;51.85;98445.25;7038551;28;20217;-82
2022/04/09 08:43:47;;;;;;;10.27;5.60;;;;;;;10.70;51.42;98442.38;7038140;28;20221;-83
2022/04/09 08:47:09;;;;;;;6.70;5.03;;;;;;;10.46;50.30;98445.78;7032090;28;20201;-80
2022/04/09 08:50:31;;;;;;;9.53;5.27;;;;;;;10.60;50.25;98436.59;7026992;28;20212;-80
2022/04/09 08:53:53;;;;;;;8.13;5.30;;;;;;;10.62;50.39;98439.94;7037332;28;20680;-80
2022/04/09 08:57:15;;;;;;;9.67;4.23;;;;;;;10.95;50.52;98443.25;7037565;28;20578;-80
2022/04/09 09:00:38;;;;;;;10.07;4.53;;;;;;;11.15;49.45;98446.69;7037225;28;20225;-80
2022/04/09 09:04:01;;;;;;;5.80;4.50;;;;;;;10.74;49.17;98435.50;7036273;28;20236;-80
2022/04/09 09:07:24;;;;;;;6.63;4.27;;;;;;;11.35;48.82;98426.63;7036308;28;20681;-80
2022/04/09 09:10:45;;;;;;;8.17;4.60;;;;;;;12.00;47.92;98425.25;7032386;28;20220;-80
2022/04/09 09:14:07;;;;;;;8.67;4.50;;;;;;;12.27;46.40;98419.31;7040445;28;20201;-81
2022/04/09 09:17:31;;;;;;;8.67;4.10;;;;;;;11.37;47.17;98435.31;7049272;28;20810;-81
2022/04/09 09:20:54;;;;;;;7.27;4.07;;;;;;;12.02;47.89;98415.84;7051416;28;20223;-81
2022/04/09 09:24:17;;;;;;;8.57;4.40;;;;;;;11.92;47.26;98436.34;7043111;28;20200;-84
2022/04/09 09:27:40;;;;;;;7.33;4.73;;;;;;;12.30;47.24;98428.84;7050996;28;20204;-80
2022/04/09 09:31:04;;;;;;;7.30;5.20;;;;;;;12.12;46.04;98388.31;7048822;28;20374;-83
2022/04/09 09:34:34;;;;;;;6.37;3.93;;;;;;;11.98;46.51;98413.84;7052361;28;20204;-84
2022/04/09 09:38:27;;;;;;;20.20;4.27;;;;;;;13.39;45.08;98447.41;7054962;28;20196;-83
2022/04/09 09:41:50;;;;;;;7.07;4.40;;;;;;;13.13;43.67;98422.59;7049018;28;20247;-83
2022/04/09 09:45:12;;;;;;;10.13;4.57;;;;;;;12.80;43.34;98457.41;7049583;28;20204;-83
2022/04/09 09:48:35;;;;;;;6.73;4.07;;;;;;;12.90;43.64;98461.19;7050734;28;20229;-83
2022/04/09 09:52:05;;;;;;;7.63;3.93;;;;;;;12.51;43.59;98466.28;7051720;28;20201;-80
2022/04/09 09:55:27;;;;;;;11.07;4.03;;;;;;;12.61;44.35;98455.72;7029720;28;20201;-79
2022/04/09 09:58:49;;;;;;;8.47;3.53;;;;;;;12.50;44.58;98470.00;7030182;28;20229;-81
2022/04/09 10:02:15;;;;;;;5.93;4.10;;;;;;;12.09;43.79;98454.44;7021576;28;20227;-80
2022/04/09 10:05:38;;;;;;;11.10;3.90;;;;;;;12.89;42.69;98466.84;7032298;28;20193;-81
2022/04/09 10:09:02;;;;;;;5.83;3.80;;;;;;;12.90;41.74;98473.91;7026789;28;20400;-78
2022/04/09 10:12:25;;;;;;;9.50;3.63;;;;;;;13.24;40.73;98467.84;7017369;28;20312;-80
2022/04/09 10:15:50;;;;;;;8.90;3.90;;;;;;;13.07;41.92;98486.63;7035362;28;20197;-81
2022/04/09 10:19:12;;;;;;;9.80;3.83;;;;;;;12.14;43.15;98472.69;7043484;28;20229;-84
2022/04/09 10:22:36;;;;;;;9.43;3.40;;;;;;;12.14;42.39;98473.53;7045988;28;20222;-84
2022/04/09 10:25:59;;;;;;;5.70;3.17;;;;;;;12.09;41.99;98440.94;7040932;28;20257;-82
2022/04/09 10:29:22;;;;;;;6.37;3.23;;;;;;;11.83;42.67;98460.09;7045177;28;20283;-83
2022/04/09 10:32:46;;;;;;;6.73;3.40;;;;;;;12.66;41.40;98458.59;7042126;28;20205;-82
2022/04/09 10:36:10;;;;;;;5.17;3.17;;;;;;;12.83;41.19;98476.69;7044036;28;20677;-82
2022/04/09 10:39:45;;;;;;;5.27;2.87;;;;;;;11.92;42.84;98474.16;7045461;28;20724;-82
2022/04/09 10:43:08;;;;;;;6.57;3.10;;;;;;;12.72;40.96;98477.47;7036895;28;20224;-82
2022/04/09 10:46:35;;;;;;;6.10;3.20;;;;;;;12.25;42.90;98482.75;7037444;28;20205;-82
2022/04/09 10:50:11;;;;;;;7.60;2.90;;;;;;;12.44;39.54;98473.59;7036368;28;20689;-82
2022/04/09 10:53:34;;;;;;;5.13;3.03;;;;;;;12.47;39.73;98470.47;7036488;28;20264;-82
2022/04/09 10:56:57;;;;;;;7.40;3.70;;;;;;;12.89;41.67;98474.94;7035442;28;20205;-82
2022/04/09 11:00:31;;;;;;;5.97;3.20;;;;;;;13.29;40.82;98468.78;7035415;28;20268;-80
2022/04/09 11:03:53;;;;;;;5.27;2.73;;;;;;;13.52;39.76;98439.06;7036849;28;20209;-82
2022/04/09 11:07:16;;;;;;;6.93;3.17;;;;;;;14.12;38.93;98454.13;7035112;28;20213;-80
2022/04/09 11:10:38;;;;;;;6.43;3.20;;;;;;;14.34;37.74;98441.63;7036113;28;20228;-80
2022/04/09 11:14:01;;;;;;;4.20;2.60;;;;;;;13.94;38.00;98454.22;7036049;28;20210;-80
2022/04/09 11:17:31;;;;;;;5.97;3.00;;;;;;;14.64;37.59;98458.53;7026377;28;20198;-80
2022/04/09 11:20:53;;;;;;;4.77;2.83;;;;;;;14.53;38.05;98461.28;7007618;28;20272;-80
2022/04/09 11:24:15;;;;;;;4.60;3.20;;;;;;;14.27;38.10;98453.69;7007781;28;20231;-80
2022/04/09 11:27:36;;;;;;;8.60;3.50;;;;;;;13.77;38.51;98447.00;7006266;28;20205;-80
2022/04/09 11:31:00;;;;;;;7.93;3.33;;;;;;;13.34;39.35;98465.41;7007233;28;20217;-80
2022/04/09 11:34:23;;;;;;;7.17;3.30;;;;;;;13.10;40.13;98461.78;7006954;28;20217;-80
2022/04/09 11:37:47;;;;;;;6.10;3.37;;;;;;;13.27;39.79;98460.09;7004866;28;20227;-80
2022/04/09 11:41:19;;;;;;;4.17;3.13;;;;;;;13.42;38.74;98454.25;7006480;28;20367;-83
2022/04/09 11:44:41;;;;;;;8.50;3.33;;;;;;;13.93;36.83;98430.88;7006286;28;20205;-81
2022/04/09 11:48:03;;;;;;;5.90;2.90;;;;;;;13.89;36.05;98423.47;7006557;28;20658;-80
2022/04/09 11:51:26;;;;;;;5.43;2.93;;;;;;;14.34;36.82;98465.22;7006657;28;20232;-80
2022/04/09 11:54:48;;;;;;;6.07;3.03;;;;;;;12.71;38.54;98454.16;7006579;28;20209;-80
2022/04/09 11:58:11;;;;;;;5.50;3.20;;;;;;;12.73;39.05;98470.16;7006327;28;20206;-83
2022/04/09 12:01:33;;;;;;;8.43;3.80;;;;;;;13.38;38.82;98475.53;7006622;28;20215;-81
2022/04/09 12:04:56;;;;;;;5.37;3.20;;;;;;;13.73;38.15;98473.75;7006885;28;20216;-81
2022/04/09 12:08:21;;;;;;;4.20;3.10;;;;;;;14.20;35.89;98469.22;7006024;28;20235;-80
2022/04/09 12:11:44;;;;;;;9.20;3.00;;;;;;;13.64;36.42;98463.50;7006589;28;20328;-81
2022/04/09 12:15:06;;;;;;;8.17;3.23;;;;;;;13.91;34.80;98476.38;7006791;28;20212;-78
2022/04/09 12:18:29;;;;;;;7.27;3.30;;;;;;;14.60;35.40;98481.81;7005438;28;20302;-78
2022/04/09 12:21:50;;;;;;;9.50;3.17;;;;;;;14.33;35.28;98464.38;7010798;28;20226;-78
2022/04/09 12:25:13;;;;;;;3.93;2.80;;;;;;;14.51;33.55;98466.94;7004936;28;20302;-78
2022/04/09 12:28:35;;;;;;;5.23;2.90;;;;;;;14.78;35.06;98478.94;7004580;28;20247;-78
2022/04/09 12:32:14;;;;;;;7.63;2.73;;;;;;;15.20;34.61;98450.47;7005375;28;20197;-78
2022/04/09 12:35:36;;;;;;;8.40;3.80;;;;;;;14.50;34.49;98476.16;7006356;28;20214;-78
2022/04/09 12:38:58;;;;;;;4.40;2.77;;;;;;;14.30;34.88;98464.88;7005811;28;20226;-78
2022/04/09 12:42:36;;;;;;;3.80;3.00;;;;;;;14.13;34.86;98473.91;7005793;28;20253;-78
2022/04/09 12:46:03;;;;;;;4.73;3.00;;;;;;;14.08;35.42;98442.09;7002488;28;20202;-78
2022/04/09 12:49:28;;;;;;;5.53;3.13;;;;;;;14.61;33.76;98460.91;7005851;28;20283;-78
2022/04/09 12:52:49;;;;;;;4.60;2.87;;;;;;;13.06;34.61;98465.19;7007058;28;20193;-78
2022/04/09 12:56:12;;;;;;;4.77;2.70;;;;;;;13.58;35.65;98450.88;7005430;28;20357;-78
2022/04/09 12:59:36;;;;;;;4.60;2.87;;;;;;;13.79;35.06;98459.28;7030055;28;20234;-78
2022/04/09 13:02:57;;;;;;;5.93;2.80;;;;;;;13.75;34.24;98473.53;7034296;28;20292;-78
2022/04/09 13:06:19;;;;;;;5.73;2.93;;;;;;;14.19;33.65;98457.56;7034146;28;20254;-78
2022/04/09 13:09:40;;;;;;;5.10;2.73;;;;;;;14.10;33.32;98471.69;7034374;28;20243;-77
2022/04/09 13:13:02;;;;;;;3.67;2.57;;;;;;;14.71;32.82;98461.97;7035375;28;20207;-78
2022/04/09 13:16:25;;;;;;;4.37;2.60;;;;;;;14.35;32.81;98446.00;7045859;28;20197;-77
2022/04/09 13:19:47;;;;;;;8.63;2.90;;;;;;;14.50;32.97;98467.19;7051099;28;20697;-79
2022/04/09 13:23:08;;;;;;;4.87;3.40;;;;;;;14.14;33.69;98476.38;7049968;28;20235;-79
2022/04/09 13:26:30;;;;;;;4.23;2.87;;;;;;;14.44;33.75;98478.97;7049766;28;20216;-79
2022/04/09 13:29:52;;;;;;;6.20;3.20;;;;;;;14.37;33.63;98475.56;7051474;28;20235;-79
2022/04/09 13:33:15;;;;;;;4.57;2.87;;;;;;;13.68;34.94;98479.03;7051120;28;20217;-79
2022/04/09 13:36:37;;;;;;;5.40;2.80;;;;;;;13.39;35.60;98469.06;7038663;28;20289;-78
2022/04/09 13:39:58;;;;;;;3.60;2.20;;;;;;;13.86;34.03;98470.00;7032377;28;20258;-80
2022/04/09 13:43:20;;;;;;;5.90;2.90;;;;;;;13.69;33.92;98464.44;7032249;28;20244;-80
2022/04/09 13:46:42;;;;;;;6.57;2.77;;;;;;;13.29;33.97;98460.66;7032163;28;20209;-81
2022/04/09 13:50:06;;;;;;;3.80;2.53;;;;;;;13.72;34.31;98472.09;7032587;28;20228;-81
2022/04/09 13:53:28;;;;;;;6.73;4.30;;;;;;;13.98;35.34;98482.50;7032934;28;20255;-81
2022/04/09 13:56:50;;;;;;;6.17;3.73;;;;;;;13.63;34.95;98468.06;7031877;28;20209;-80
2022/04/09 14:00:14;;;;;;;7.07;3.40;;;;;;;13.58;35.77;98459.00;7034867;28;20231;-81
2022/04/09 14:03:35;;;;;;;7.63;3.03;;;;;;;14.10;34.65;98471.69;7037404;28;20628;-80
2022/04/09 14:06:58;;;;;;;6.97;2.97;;;;;;;13.54;34.48;98472.19;7038052;28;20270;-81
2022/04/09 14:10:21;;;;;;;3.53;2.50;;;;;;;13.96;33.46;98456.69;7038096;28;20240;-81
2022/04/09 14:13:42;;;;;;;5.70;2.50;;;;;;;14.15;34.55;98482.66;7037728;28;20620;-81
2022/04/09 14:17:04;;;;;;;3.87;2.80;;;;;;;14.11;34.84;98481.47;7037247;28;20210;-81
2022/04/09 14:20:26;;;;;;;4.27;2.50;;;;;;;13.57;35.09;98470.91;7037331;28;20222;-79
2022/04/09 14:23:50;;;;;;;6.00;2.60;;;;;;;13.86;34.66;98467.31;7037273;28;20309;-79
2022/04/09 14:27:12;;;;;;;6.10;3.10;;;;;;;13.81;34.33;98470.69;7036644;28;20208;-80
2022/04/09 14:30:33;;;;;;;8.23;3.17;;;;;;;14.03;34.22;98462.81;7037325;28;20221;-80
2022/04/09 14:33:55;;;;;;;7.03;2.73;;;;;;;13.47;34.73;98471.47;7037487;28;20279;-79
2022/04/09 14:37:16;;;;;;;6.43;2.60;;;;;;;13.86;34.28;98462.69;7037417;28;20201;-80
2022/04/09 14:40:39;;;;;;;5.97;2.83;;;;;;;13.57;35.13;98460.88;7037127;28;20234;-79
2022/04/09 14:44:01;;;;;;;5.67;2.40;;;;;;;13.82;32.38;98464.25;7037317;28;20226;-79
2022/04/09 14:47:22;;;;;;;7.23;2.70;;;;;;;13.47;32.48;98444.38;7036591;28;20376;-79
2022/04/09 14:50:44;;;;;;;3.07;2.27;;;;;;;13.86;32.20;98467.31;7037247;28;20326;-79
2022/04/09 14:54:06;;;;;;;2.93;2.27;;;;;;;14.68;32.46;98454.31;7038005;28;20676;-80
2022/04/09 14:57:29;;;;;;;4.17;2.37;;;;;;;14.29;31.90;98459.66;7037942;28;20205;-79
2022/04/09 15:00:50;;;;;;;5.27;3.10;;;;;;;14.50;32.53;98461.75;7038548;28;20223;-80
2022/04/09 15:04:12;;;;;;;5.17;2.57;;;;;;;14.59;32.29;98450.31;7039107;28;20407;-79
2022/04/09 15:07:34;;;;;;;9.27;2.53;;;;;;;14.24;33.40;98451.41;7038614;28;20203;-78
2022/04/09 15:10:55;;;;;;;4.60;2.60;;;;;;;14.21;34.16;98452.72;7045019;28;20305;-78
2022/04/09 15:14:18;;;;;;;3.50;2.70;;;;;;;14.05;34.58;98439.84;7048196;28;20211;-77
2022/04/09 15:17:40;;;;;;;4.60;2.70;;;;;;;13.88;33.90;98448.91;7036445;28;20197;-77
2022/04/09 15:21:02;;;;;;;7.43;2.70;;;;;;;14.16;33.58;98452.56;7037876;28;20231;-77
2022/04/09 15:24:23;;;;;;;4.87;2.63;;;;;;;14.43;32.53;98437.50;7037107;28;20715;-77
2022/04/09 15:27:45;;;;;;;3.37;2.70;;;;;;;14.01;33.58;98462.22;7036853;28;20207;-78
2022/04/09 15:31:08;;;;;;;8.83;2.87;;;;;;;13.89;32.76;98459.53;7040783;28;20221;-77
2022/04/09 15:34:29;;;;;;;4.33;2.40;;;;;;;13.82;33.59;98471.53;7035629;28;20202;-78
2022/04/09 15:37:51;;;;;;;4.10;2.70;;;;;;;13.72;33.41;98463.97;7034818;28;20201;-80
2022/04/09 15:41:15;;;;;;;4.43;2.73;;;;;;;13.83;33.90;98418.97;7034755;28;20240;-78
2022/04/09 15:44:36;;;;;;;4.77;2.70;;;;;;;14.97;31.03;98450.56;7035383;28;20228;-78
2022/04/09 15:47:59;;;;;;;4.17;2.73;;;;;;;14.11;31.05;98465.19;7035540;28;20202;-78
2022/04/09 15:51:21;;;;;;;6.23;3.10;;;;;;;14.09;32.69;98470.84;7035294;28;20232;-78
2022/04/09 15:54:43;;;;;;;4.53;2.93;;;;;;;13.80;33.42;98476.38;7035112;28;20579;-79
2022/04/09 15:58:05;;;;;;;6.07;3.00;;;;;;;13.53;33.68;98467.00;7035060;28;20237;-80
2022/04/09 16:01:26;;;;;;;13.33;3.20;;;;;;;13.66;34.58;98474.91;7034873;28;20696;-80
2022/04/09 16:04:49;;;;;;;4.93;3.00;;;;;;;13.44;35.05;98452.97;7034933;28;20230;-80